Alpine, New York
Current Conditions -  °F | °C
As of 1:53 PM on Tuesday 21 Oct 2014 (Local Time) from KELM Reporting Station
Overcast Overcast  
Wind Chill: 56°   Ceiling: 2000
Heat Index: 56°   Visibility: 10mi
Dew Point: 50°   Wind: 0mph
Humidity: 80%   Direction: NA
Pressure: 29.84"   Gusts: NA
Location:  42.31°N, 76.72°W
Report Text: KELM 211753Z 00000KT 10SM OVC020 13/10 A2984 RMK AO2 SLP107 60001 T01330100 10133 20083 50000
Loading
Personal Weather Stations






























Interactive Weather Map New forecast layout! Learn more

10-Day Weather Forecast

Advertisements
Track Severe Weather on mobile